Data for 07/05/2015

Time Sea-Level Adjusted Pressure Absolute Pressure Temperature Relative Humidity Dew Point   
(mb) (inHg) (mb) (inHg) (C) (F) (%) (C) (F)
00:05 1014 29.94 844 24.92 23.5 74.3 25 2.8 37
00:10 1014 29.94 843 24.89 23.3 74 25 2.4 36.4
00:15 1014 29.94 843 24.89 23.3 73.9 25 2.6 36.7
00:20 1014 29.94 843 24.89 22.9 73.3 27 3.2 37.8
00:25 1014 29.94 843 24.89 22.5 72.6 30 4.5 40.1
00:30 1014 29.94 843 24.89 22.1 71.8 34 5.8 42.4
00:35 1014 29.94 843 24.89 21.2 70.1 36 5.6 42.1
00:40 1014 29.94 843 24.89 20.6 69 36 5.3 41.5
00:45 1014 29.94 843 24.89 19.7 67.4 40 5.8 42.4
00:50 1014 29.94 843 24.89 19.4 66.8 37 4.4 40
00:55 1014 29.94 843 24.89 19.4 66.9 36 4 39.3
01:00 1014 29.94 843 24.89 19.5 67 36 4.3 39.8
01:05 1014 29.94 844 24.92 19.3 66.7 36 3.8 38.8
01:10 1014 29.94 844 24.92 19.1 66.4 35 3.6 38.4
01:15 1015 29.97 844 24.92 19.1 66.3 34 3.2 37.8
01:20 1015 29.97 844 24.92 19.2 66.6 36 3.9 39.1
01:25 1015 29.97 844 24.92 18.9 66.1 38 4.5 40.1
01:30 1015 29.97 844 24.92 19.2 66.5 37 4.5 40.1
01:35 1015 29.97 844 24.92 19.2 66.5 38 4.8 40.6
01:40 1015 29.97 844 24.92 19.1 66.4 38 4.8 40.6
01:45 1015 29.97 844 24.92 19.1 66.4 39 4.8 40.7
01:50 1015 29.97 844 24.92 18.4 65.2 42 5.4 41.8
01:55 1015 29.97 845 24.95 17.7 63.8 44 5.5 41.9
02:00 1015 29.97 845 24.95 17 62.6 46 5.3 41.5
02:05 1016 30 845 24.95 17.1 62.8 44 4.8 40.6
02:10 1016 30 845 24.95 17.8 64 43 5.3 41.5
02:15 1016 30 845 24.95 17.8 64 46 6.2 43.1
02:20 1016 30 845 24.95 17.6 63.7 49 7 44.6
02:25 1016 30 845 24.95 16.9 62.5 57 8.4 47.1
02:30 1016 30 845 24.95 16.4 61.4 62 9.1 48.4
02:35 1016 30 846 24.98 16.3 61.3 64 9.6 49.3
02:40 1017 30.03 846 24.98 16.3 61.4 65 9.7 49.5
02:45 1017 30.03 846 24.98 16.3 61.4 65 9.8 49.6
02:50 1017 30.03 846 24.98 16.3 61.3 66 9.9 49.8
02:55 1017 30.03 846 24.98 15.9 60.7 68 10 50.1
03:00 1017 30.03 846 24.98 15.6 60 69 10 50
03:05 1017 30.03 846 24.98 15.4 59.7 70 10.1 50.1
03:10 1017 30.03 846 24.98 15 59 72 10.1 50.2
03:15 1017 30.03 847 25.01 14.7 58.5 73 10 50
03:20 1018 30.06 847 25.01 14.7 58.4 73 10 49.9
03:25 1018 30.06 847 25.01 14.6 58.3 74 10 50
03:30 1018 30.06 847 25.01 14.5 58.1 74 10 50
03:35 1018 30.06 847 25.01 14.5 58 75 10 50
03:40 1018 30.06 847 25.01 14.4 57.9 75 10 50.1
03:45 1018 30.06 847 25.01 14.4 58 74 9.9 49.9
03:50 1018 30.06 847 25.01 14.6 58.3 73 10 49.9
03:55 1018 30.06 847 25.01 14.7 58.5 73 10 50.1
04:00 1018 30.06 848 25.04 14.7 58.4 73 10 49.9
04:05 1018 30.06 848 25.04 14.7 58.5 73 10 50
04:10 1019 30.09 848 25.04 14.7 58.4 73 10 50
04:15 1019 30.09 848 25.04 14.6 58.3 74 10 50
04:20 1019 30.09 848 25.04 14.5 58.1 74 9.9 49.9
04:25 1019 30.09 848 25.04 14.6 58.2 74 10 50
04:30 1019 30.09 848 25.04 14.5 58 75 10 50.1
04:35 1019 30.09 848 25.04 14.4 58 75 10.1 50.2
04:40 1019 30.09 848 25.04 14.3 57.7 75 10 50
04:45 1019 30.09 848 25.04 14.2 57.6 76 10 50
04:50 1019 30.09 848 25.04 14.2 57.6 76 10 50
04:55 1019 30.09 848 25.04 14.1 57.3 76 9.9 49.8
05:00 1019 30.09 848 25.04 14 57.2 76 9.8 49.7
05:05 1019 30.09 848 25.04 14.1 57.5 76 10.1 50.1
05:10 1019 30.09 848 25.04 13.9 57 79 10.4 50.6
05:15 1019 30.09 848 25.04 13.6 56.6 80 10.2 50.4
05:20 1019 30.09 848 25.04 13.4 56.2 81 10.2 50.4
05:25 1019 30.09 848 25.04 13.3 56 81 10.1 50.2
05:30 1019 30.09 849 25.07 13.3 55.9 81 10.1 50.2
05:35 1019 30.09 849 25.07 13.3 55.9 81 10 50.1
05:40 1019 30.09 848 25.04 13.2 55.8 81 10 50.1
05:45 1019 30.09 848 25.04 13.3 55.9 81 10.1 50.3
05:50 1019 30.09 848 25.04 13.4 56.1 81 10.2 50.4
05:55 1019 30.09 849 25.07 13.4 56.1 81 10.3 50.5
06:00 1020 30.12 849 25.07 13.4 56.1 81 10.3 50.5
06:05 1020 30.12 849 25.07 13.5 56.3 80 10.1 50.2
06:10 1020 30.12 849 25.07 13.5 56.3 79 10 50.1
06:15 1020 30.12 849 25.07 13.6 56.4 79 10 50
06:20 1020 30.12 849 25.07 13.5 56.4 78 9.8 49.7
06:25 1020 30.12 849 25.07 13.5 56.3 78 9.8 49.7
06:30 1020 30.12 849 25.07 13.5 56.3 77 9.6 49.3
06:35 1020 30.12 849 25.07 13.5 56.3 76 9.4 48.9
06:40 1020 30.12 849 25.07 13.5 56.3 76 9.5 49
06:45 1020 30.12 849 25.07 13.6 56.5 76 9.4 49
06:50 1020 30.12 850 25.1 13.7 56.7 76 9.6 49.3
06:55 1020 30.12 850 25.1 13.7 56.7 75 9.5 49.1
07:00 1020 30.12 850 25.1 13.8 56.8 75 9.5 49.2
07:05 1020 30.12 850 25.1 13.9 57 74 9.3 48.8
07:10 1020 30.12 850 25.1 13.9 57 74 9.4 48.9
07:15 1020 30.12 850 25.1 14 57.2 74 9.5 49.2
07:20 1020 30.12 850 25.1 14 57.1 73 9.2 48.6
07:25 1020 30.12 850 25.1 14 57.1 73 9.3 48.7
07:30 1020 30.12 850 25.1 14 57.1 74 9.3 48.8
07:35 1020 30.12 850 25.1 14 57.2 74 9.4 49
07:40 1020 30.12 850 25.1 14 57.2 74 9.5 49.1
07:45 1021 30.15 850 25.1 14.1 57.3 74 9.4 49
07:50 1021 30.15 850 25.1 14.1 57.3 72 9.2 48.6
07:55 1020 30.12 850 25.1 14.1 57.4 73 9.3 48.7
08:00 1021 30.15 850 25.1 14.1 57.3 74 9.4 49
08:05 1021 30.15 850 25.1 14.1 57.4 74 9.6 49.2
08:10 1021 30.15 850 25.1 14.2 57.5 73 9.5 49.1
08:15 1021 30.15 850 25.1 14.1 57.4 73 9.5 49.1
08:20 1021 30.15 850 25.1 14.1 57.3 74 9.6 49.4
08:25 1021 30.15 850 25.1 14.1 57.4 74 9.6 49.3
08:30 1021 30.15 850 25.1 14.2 57.6 73 9.6 49.2
08:35 1021 30.15 850 25.1 14.2 57.6 74 9.7 49.4
08:40 1021 30.15 850 25.1 14.2 57.6 75 9.9 49.8
08:45 1021 30.15 850 25.1 13.8 56.9 77 9.9 49.8
08:50 1021 30.15 850 25.1 13.8 56.8 76 9.7 49.5
08:55 1021 30.15 850 25.1 13.8 56.9 77 10 49.9
09:00 1021 30.15 850 25.1 13.8 56.8 78 10 50
09:05 1021 30.15 850 25.1 13.5 56.3 81 10.3 50.6
09:10 1021 30.15 850 25.1 13.4 56.1 79 9.8 49.7
09:15 1021 30.15 850 25.1 13.3 56 78 9.7 49.4
09:20 1021 30.15 850 25.1 13.4 56 78 9.6 49.3
09:25 1021 30.15 850 25.1 13.3 55.9 79 9.6 49.4
09:30 1021 30.15 850 25.1 13.2 55.8 78 9.4 49
09:35 1021 30.15 850 25.1 13.3 55.9 76 9.2 48.5
09:40 1021 30.15 850 25.1 13.6 56.5 74 9 48.3
09:45 1021 30.15 850 25.1 14.1 57.3 72 9.2 48.6
09:50 1021 30.15 850 25.1 14.5 58.1 70 9.2 48.6
09:55 1021 30.15 850 25.1 14.7 58.5 70 9.4 48.9
10:00 1021 30.15 850 25.1 14.8 58.6 68 9.1 48.3
10:05 1021 30.15 850 25.1 14.9 58.8 67 8.9 48
10:10 1021 30.15 850 25.1 14.9 58.9 67 9 48.1
10:15 1021 30.15 850 25.1 14.9 58.8 66 8.7 47.6
10:20 1021 30.15 850 25.1 15.2 59.3 63 8.1 46.7
10:25 1021 30.15 850 25.1 15.2 59.4 62 8 46.5
10:30 1021 30.15 850 25.1 15.4 59.6 61 7.9 46.2
10:35 1020 30.12 850 25.1 15.3 59.5 62 8 46.4
10:40 1021 30.15 850 25.1 15.3 59.5 61 7.8 46
10:45 1021 30.15 850 25.1 15.1 59.2 63 8.2 46.8
10:50 1021 30.15 850 25.1 15 59 63 8.1 46.6
10:55 1021 30.15 850 25.1 15 58.9 63 8 46.4
11:00 1021 30.15 850 25.1 15 59 64 8.2 46.8
11:05 1021 30.15 850 25.1 15.2 59.3 63 8.3 46.9
11:10 1021 30.15 850 25.1 15.2 59.4 64 8.4 47.1
11:15 1021 30.15 850 25.1 15.1 59.2 65 8.6 47.5
11:20 1021 30.15 850 25.1 14.9 58.9 65 8.5 47.3
11:25 1021 30.15 850 25.1 15.1 59.2 65 8.7 47.7
11:30 1021 30.15 850 25.1 15 59.1 65 8.7 47.6
11:35 1021 30.15 850 25.1 15 59 66 8.8 47.9
11:40 1021 30.15 850 25.1 15 58.9 67 8.8 47.9
11:45 1021 30.15 850 25.1 15.2 59.3 66 8.9 48
11:50 1021 30.15 850 25.1 15.4 59.8 65 9 48.1
11:55 1021 30.15 850 25.1 15.7 60.2 65 9.1 48.4
12:00 1021 30.15 850 25.1 15.5 59.8 65 9 48.2
12:05 1021 30.15 850 25.1 15.5 59.8 64 8.8 47.9
12:10 1021 30.15 850 25.1 15.7 60.2 65 9.1 48.4
12:15 1021 30.15 850 25.1 15.6 60 64 9 48.1
12:20 1021 30.15 850 25.1 15.6 60.1 65 9.2 48.5
12:25 1021 30.15 850 25.1 15.8 60.4 65 9.3 48.7
12:30 1020 30.12 850 25.1 16 60.8 63 9.2 48.5
12:35 1021 30.15 850 25.1 15.9 60.5 64 9.2 48.5
12:40 1021 30.15 850 25.1 15.9 60.5 64 9.2 48.5
12:45 1021 30.15 850 25.1 15.6 60.1 66 9.3 48.7
12:50 1020 30.12 850 25.1 15.8 60.4 64 9.2 48.5
12:55 1020 30.12 850 25.1 15.8 60.4 64 9 48.2
13:00 1021 30.15 850 25.1 16.2 61.1 63 9.2 48.6
13:05 1021 30.15 850 25.1 16.1 60.9 63 9 48.3
13:10 1021 30.15 850 25.1 16.3 61.3 61 8.9 48
13:15 1021 30.15 850 25.1 16.6 61.8 62 9.2 48.6
13:20 1021 30.15 850 25.1 16.5 61.7 61 9.1 48.4
13:25 1021 30.15 850 25.1 16.2 61.1 63 9.3 48.7
13:30 1021 30.15 850 25.1 16.3 61.3 62 9 48.3
13:35 1021 30.15 850 25.1 16.3 61.4 62 9.1 48.4
13:40 1021 30.15 850 25.1 16.3 61.3 63 9.3 48.7
13:45 1021 30.15 850 25.1 16.4 61.5 63 9.4 48.9
13:50 1021 30.15 850 25.1 16.5 61.6 62 9.3 48.8
13:55 1021 30.15 850 25.1 16.4 61.4 62 9.2 48.6
14:00 1021 30.15 850 25.1 16.2 61.1 63 9.2 48.6
14:05 1021 30.15 850 25.1 16.1 60.9 63 9 48.3
14:10 1021 30.15 850 25.1 16.4 61.5 63 9.4 48.9
14:15 1021 30.15 850 25.1 16.2 61.2 63 9.3 48.8
14:20 1021 30.15 850 25.1 16.2 61.2 63 9.3 48.8
14:25 1021 30.15 850 25.1 16.2 61.1 63 9.2 48.5
14:30 1021 30.15 850 25.1 16.3 61.4 63 9.3 48.8
14:35 1021 30.15 850 25.1 16.2 61.1 62 9 48.3
14:40 1021 30.15 850 25.1 16.1 61 64 9.4 48.9
14:45 1021 30.15 850 25.1 15.8 60.5 65 9.2 48.6
14:50 1021 30.15 850 25.1 15.9 60.6 64 9.2 48.6
14:55 1021 30.15 850 25.1 15.8 60.5 64 9.1 48.5
15:00 1021 30.15 850 25.1 15.9 60.6 64 9.1 48.3
15:05 1021 30.15 850 25.1 15.9 60.6 63 8.9 48.1
15:10 1021 30.15 850 25.1 15.9 60.7 62 8.8 47.8
15:15 1021 30.15 850 25.1 16 60.9 62 8.9 48
15:20 1021 30.15 850 25.1 15.9 60.5 63 8.8 47.8
15:25 1021 30.15 850 25.1 15.8 60.5 62 8.7 47.6
15:30 1021 30.15 850 25.1 15.8 60.5 63 8.8 47.8
15:35 1021 30.15 850 25.1 15.7 60.3 62 8.7 47.6
15:40 1021 30.15 850 25.1 15.6 60.1 63 8.7 47.7
15:45 1021 30.15 850 25.1 15.5 59.9 64 8.8 47.8
15:50 1021 30.15 850 25.1 15.6 60 64 8.8 47.8
15:55 1021 30.15 850 25.1 15.5 59.9 64 8.8 47.9
16:00 1021 30.15 850 25.1 15.4 59.7 64 8.7 47.7
16:05 1021 30.15 850 25.1 15.4 59.6 64 8.7 47.6
16:10 1021 30.15 850 25.1 15.3 59.5 63 8.4 47.2
16:15 1021 30.15 850 25.1 15.1 59.1 64 8.3 46.9
16:20 1021 30.15 850 25.1 15.1 59.2 63 8.2 46.8
16:25 1021 30.15 850 25.1 15.1 59.2 63 8.1 46.6
16:30 1021 30.15 850 25.1 15 59 63 8 46.3
16:35 1021 30.15 850 25.1 14.9 58.9 62 7.9 46.1
16:40 1021 30.15 850 25.1 14.9 58.8 62 7.8 46.1
16:45 1021 30.15 850 25.1 14.9 58.8 62 7.8 46.1
16:50 1021 30.15 850 25.1 14.9 58.7 62 7.6 45.7
16:55 1021 30.15 850 25.1 14.8 58.6 62 7.5 45.5
17:00 1021 30.15 850 25.1 14.7 58.5 62 7.6 45.6
17:05 1021 30.15 850 25.1 14.6 58.3 62 7.4 45.3
17:10 1021 30.15 850 25.1 14.5 58.2 62 7.4 45.3
17:15 1021 30.15 851 25.13 14.5 58 62 7.3 45.2
17:20 1022 30.18 851 25.13 14.4 57.8 63 7.4 45.4
17:25 1022 30.18 851 25.13 13.9 57.1 70 8.5 47.3
17:30 1022 30.18 851 25.13 13.3 56 73 8.7 47.7
17:35 1022 30.18 851 25.13 12.9 55.2 76 8.7 47.6
17:40 1022 30.18 851 25.13 12.5 54.4 78 8.8 47.8
17:45 1022 30.18 851 25.13 12.2 53.9 79 8.7 47.7
17:50 1022 30.18 851 25.13 12.1 53.8 80 8.8 47.9
17:55 1022 30.18 851 25.13 12 53.6 81 8.9 48
18:00 1022 30.18 851 25.13 11.9 53.4 83 9.1 48.3
18:05 1022 30.18 851 25.13 11.9 53.4 80 8.6 47.5
18:10 1022 30.18 851 25.13 11.9 53.5 81 8.8 47.9
18:15 1021 30.15 851 25.13 11.8 53.3 83 9 48.3
18:20 1022 30.18 851 25.13 11.8 53.3 82 8.8 47.9
18:25 1022 30.18 851 25.13 11.9 53.3 83 9 48.3
18:30 1022 30.18 851 25.13 11.8 53.3 84 9.3 48.7
18:35 1022 30.18 851 25.13 11.8 53.2 83 9.1 48.4
18:40 1022 30.18 851 25.13 11.9 53.4 83 9.1 48.4
18:45 1022 30.18 852 25.16 12 53.6 81 8.8 47.9
18:50 1022 30.18 852 25.16 12.1 53.8 80 8.8 47.9
18:55 1022 30.18 852 25.16 12.2 53.9 80 8.9 47.9
19:00 1022 30.18 852 25.16 12.3 54.1 78 8.6 47.5
19:05 1022 30.18 852 25.16 12.3 54.1 78 8.6 47.5
19:10 1023 30.21 852 25.16 12.3 54.1 79 8.8 47.8
19:15 1023 30.21 852 25.16 12.3 54.2 79 8.8 47.9
19:20 1023 30.21 852 25.16 12.3 54.2 79 8.8 47.8
19:25 1023 30.21 852 25.16 12.3 54.1 78 8.7 47.6
19:30 1023 30.21 852 25.16 12.4 54.2 78 8.7 47.7
19:35 1023 30.21 852 25.16 12.3 54.2 79 8.8 47.8
19:40 1023 30.21 852 25.16 12.3 54.1 79 8.8 47.8
19:45 1023 30.21 852 25.16 12.3 54.2 78 8.5 47.4
19:50 1023 30.21 852 25.16 12.4 54.3 78 8.6 47.6
19:55 1023 30.21 852 25.16 12.4 54.2 77 8.5 47.4
20:00 1023 30.21 852 25.16 12.4 54.2 78 8.7 47.6
20:05 1023 30.21 852 25.16 12.3 54.2 78 8.7 47.7
20:10 1023 30.21 852 25.16 12.3 54.1 77 8.5 47.3
20:15 1023 30.21 852 25.16 12.3 54.1 79 8.7 47.6
20:20 1023 30.21 852 25.16 12.2 54 79 8.6 47.5
20:25 1023 30.21 852 25.16 12.2 53.9 78 8.5 47.4
20:30 1023 30.21 852 25.16 12.1 53.8 79 8.5 47.4
20:35 1023 30.21 852 25.16 12.1 53.7 79 8.5 47.3
20:40 1023 30.21 852 25.16 12 53.6 78 8.3 47
20:45 1023 30.21 852 25.16 12 53.6 79 8.5 47.3
20:50 1023 30.21 853 25.19 11.9 53.5 79 8.4 47.1
20:55 1023 30.21 853 25.19 11.9 53.5 78 8.2 46.8
21:00 1023 30.21 853 25.19 12 53.6 78 8.2 46.8
21:05 1024 30.24 853 25.19 12 53.7 77 8.2 46.8
21:10 1024 30.24 853 25.19 12 53.7 77 8.2 46.8
21:15 1024 30.24 853 25.19 12.1 53.7 77 8.2 46.8
21:20 1024 30.24 853 25.19 12.1 53.8 76 8.1 46.5
21:25 1024 30.24 853 25.19 12.2 54 77 8.3 47
21:30 1024 30.24 853 25.19 12.2 54 77 8.3 47
21:35 1024 30.24 853 25.19 12.3 54.1 76 8.3 46.9
21:40 1024 30.24 853 25.19 12.3 54.1 77 8.3 47
21:45 1024 30.24 853 25.19 12.3 54.1 77 8.3 46.9
21:50 1024 30.24 853 25.19 12.2 54 77 8.4 47
21:55 1024 30.24 853 25.19 12.2 53.9 77 8.2 46.8
22:00 1024 30.24 853 25.19 12.2 54 77 8.4 47.1
22:05 1024 30.24 853 25.19 12.2 53.9 77 8.4 47.1
22:10 1024 30.24 854 25.22 12.2 53.9 78 8.4 47.2
22:15 1024 30.24 854 25.22 12.2 53.9 77 8.3 46.9
22:20 1024 30.24 854 25.22 12.2 54 77 8.4 47
22:25 1025 30.27 854 25.22 12.2 54 77 8.4 47.1
22:30 1025 30.27 854 25.22 12.2 54 77 8.4 47.1
22:35 1025 30.27 854 25.22 12.2 53.9 77 8.4 47.1
22:40 1025 30.27 854 25.22 12.2 53.9 77 8.3 47
22:45 1025 30.27 854 25.22 12.2 53.9 78 8.4 47.2
22:50 1025 30.27 854 25.22 12.2 54 78 8.5 47.4
22:55 1025 30.27 854 25.22 12.2 54 78 8.5 47.3
23:00 1025 30.27 854 25.22 12.2 54 77 8.4 47.1
23:05 1025 30.27 854 25.22 12.2 53.9 77 8.2 46.8
23:10 1025 30.27 854 25.22 12.2 54 76 8.2 46.8
23:15 1025 30.27 854 25.22 12.2 54 77 8.4 47.1
23:20 1025 30.27 854 25.22 12.2 53.9 77 8.2 46.8
23:25 1025 30.27 854 25.22 12.2 54 77 8.3 46.9
23:30 1025 30.27 854 25.22 12.2 53.9 77 8.2 46.8
23:35 1025 30.27 854 25.22 12.2 53.9 76 8.2 46.7
23:40 1025 30.27 854 25.22 12.2 54 76 8.2 46.7
23:45 1025 30.27 854 25.22 12.2 53.9 76 8.2 46.7
23:50 1025 30.27 854 25.22 12.2 53.9 76 8.1 46.6
23:55 1025 30.27 854 25.22 12.2 54 77 8.2 46.8
24:00 1025 30.27 854 25.22 12.1 53.8 77 8.3 46.9